createdAt,value
2023-02-22T00:00:50.924Z,3.22
2023-02-22T00:03:07.417Z,3.80
2023-02-22T00:05:25.674Z,3.55
2023-02-22T00:07:42.074Z,3.53
2023-02-22T00:09:58.359Z,4.10
2023-02-22T00:12:14.765Z,3.90
2023-02-22T00:14:31.258Z,3.90
2023-02-22T00:16:47.652Z,4.10
2023-02-22T00:19:03.943Z,4.13
2023-02-22T00:21:20.230Z,4.03
2023-02-22T00:23:36.579Z,3.80
2023-02-22T00:25:52.858Z,4.18
2023-02-22T00:28:09.149Z,4.18
2023-02-22T00:30:25.471Z,4.40
2023-02-22T00:32:41.792Z,4.00
2023-02-22T00:34:58.171Z,3.78
2023-02-22T00:37:14.470Z,3.97
2023-02-22T00:39:30.816Z,4.20
2023-02-22T00:41:47.146Z,4.30
2023-02-22T00:44:03.539Z,4.20
2023-02-22T00:46:19.849Z,4.15
2023-02-22T00:48:36.164Z,3.97
2023-02-22T00:50:52.430Z,4.38
2023-02-22T00:53:08.729Z,3.80
2023-02-22T00:55:25.013Z,4.22
2023-02-22T00:57:41.317Z,4.22
2023-02-22T00:59:57.587Z,4.70
2023-02-22T01:02:13.999Z,4.60
2023-02-22T01:04:30.371Z,4.32
2023-02-22T01:06:46.678Z,4.43
2023-02-22T01:09:02.968Z,4.07
2023-02-22T01:11:19.350Z,3.90
2023-02-22T01:13:35.644Z,4.00
2023-02-22T01:15:51.956Z,4.28
2023-02-22T01:18:08.262Z,4.40
2023-02-22T01:20:24.599Z,4.90
2023-02-22T01:22:40.878Z,4.68
2023-02-22T01:24:57.179Z,4.55
2023-02-22T01:27:13.560Z,4.38
2023-02-22T01:29:29.865Z,4.38
2023-02-22T01:31:46.164Z,4.05
2023-02-22T01:34:02.501Z,4.07
2023-02-22T01:36:18.809Z,4.82
2023-02-22T01:38:35.160Z,4.38
2023-02-22T01:40:51.431Z,5.10
2023-02-22T01:43:07.720Z,5.22
2023-02-22T01:45:24.028Z,5.07
2023-02-22T01:47:40.381Z,4.95
2023-02-22T01:49:56.664Z,4.68
2023-02-22T01:52:12.971Z,4.65
2023-02-22T01:54:29.210Z,5.32
2023-02-22T01:56:45.517Z,4.45
2023-02-22T01:59:01.805Z,4.75
2023-02-22T02:01:18.496Z,4.95
2023-02-22T02:03:35.016Z,4.72
2023-02-22T02:05:51.374Z,4.45
2023-02-22T02:08:07.638Z,4.82
2023-02-22T02:10:23.931Z,5.00
2023-02-22T02:12:40.236Z,5.13
2023-02-22T02:14:56.566Z,5.57
2023-02-22T02:17:12.856Z,4.97
2023-02-22T02:19:29.137Z,5.05
2023-02-22T02:21:45.410Z,5.00
2023-02-22T02:24:01.719Z,5.10
2023-02-22T02:26:18.020Z,4.93
2023-02-22T02:28:34.337Z,5.15
2023-02-22T02:30:50.641Z,4.72
2023-02-22T02:33:06.964Z,4.53
2023-02-22T02:35:23.250Z,4.72
2023-02-22T02:37:39.527Z,4.32
2023-02-22T02:39:55.822Z,4.82
2023-02-22T02:42:12.129Z,4.40
2023-02-22T02:44:28.415Z,4.90
2023-02-22T02:46:44.675Z,4.78
2023-02-22T02:49:01.160Z,5.03
2023-02-22T02:51:17.642Z,4.88
2023-02-22T02:53:34.105Z,5.10
2023-02-22T02:55:50.369Z,4.57
2023-02-22T02:58:06.769Z,5.13
2023-02-22T03:00:23.102Z,5.35
2023-02-22T03:02:39.568Z,4.50
2023-02-22T03:04:55.881Z,5.40
2023-02-22T03:07:12.188Z,4.70
2023-02-22T03:09:28.616Z,4.60
2023-02-22T03:11:44.855Z,5.10
2023-02-22T03:14:01.167Z,4.75
2023-02-22T03:16:17.468Z,5.03
2023-02-22T03:18:33.824Z,4.80
2023-02-22T03:20:50.092Z,4.80
2023-02-22T03:23:06.359Z,4.55
2023-02-22T03:25:22.648Z,4.55
2023-02-22T03:27:38.957Z,4.80
2023-02-22T03:29:55.231Z,4.25
2023-02-22T03:32:11.564Z,4.55
2023-02-22T03:34:28.006Z,4.72
2023-02-22T03:36:44.281Z,4.70
2023-02-22T03:39:00.515Z,5.03
2023-02-22T03:41:17.026Z,4.53
2023-02-22T03:43:33.521Z,4.50
2023-02-22T03:45:49.849Z,4.45
2023-02-22T03:48:06.137Z,5.10
2023-02-22T03:50:22.391Z,4.72
2023-02-22T03:52:38.653Z,5.18
2023-02-22T03:54:55.054Z,4.60
2023-02-22T03:57:11.341Z,5.43
2023-02-22T03:59:27.779Z,4.63
2023-02-22T04:01:44.112Z,4.90
2023-02-22T04:04:00.441Z,4.70
2023-02-22T04:06:16.684Z,4.18
2023-02-22T04:08:32.963Z,5.00
2023-02-22T04:10:49.215Z,5.15
2023-02-22T04:13:05.534Z,5.20
2023-02-22T04:15:21.789Z,5.47
2023-02-22T04:17:38.041Z,5.13
2023-02-22T04:19:54.344Z,5.20
2023-02-22T04:22:10.650Z,4.28
2023-02-22T04:24:27.738Z,5.40
2023-02-22T04:26:45.324Z,5.00
2023-02-22T04:29:01.584Z,4.78
2023-02-22T04:31:18.138Z,4.85
2023-02-22T04:33:34.612Z,4.72
2023-02-22T04:35:50.888Z,4.55
2023-02-22T04:38:07.164Z,4.97
2023-02-22T04:40:23.477Z,4.80
2023-02-22T04:42:39.722Z,4.43
2023-02-22T04:44:55.992Z,5.18
2023-02-22T04:47:12.260Z,5.18
2023-02-22T04:49:28.533Z,5.65
2023-02-22T04:51:44.789Z,5.57
2023-02-22T04:54:01.056Z,5.00
2023-02-22T04:56:17.339Z,5.30
2023-02-22T04:58:33.800Z,5.38
2023-02-22T05:00:50.099Z,5.07
2023-02-22T05:03:06.407Z,5.53
2023-02-22T05:05:22.667Z,5.38
2023-02-22T05:07:38.948Z,4.75
2023-02-22T05:09:55.200Z,5.18
2023-02-22T05:12:11.474Z,7.63
2023-02-22T05:14:27.734Z,6.63
2023-02-22T05:16:44.052Z,7.00
2023-02-22T05:19:00.366Z,5.57
2023-02-22T05:21:16.870Z,5.88
2023-02-22T05:23:33.303Z,6.25
2023-02-22T05:25:49.596Z,5.40
2023-02-22T05:28:05.906Z,5.40
2023-02-22T05:30:22.170Z,5.53
2023-02-22T05:32:38.461Z,5.10
2023-02-22T05:34:54.753Z,5.68
2023-02-22T05:37:11.126Z,5.07
2023-02-22T05:39:27.395Z,5.55
2023-02-22T05:41:43.659Z,5.45
2023-02-22T05:43:59.986Z,5.07
2023-02-22T05:46:16.266Z,5.38
2023-02-22T05:48:32.557Z,5.43
2023-02-22T05:50:48.818Z,5.55
2023-02-22T05:53:05.121Z,5.30
2023-02-22T05:55:21.414Z,5.63
2023-02-22T05:57:37.720Z,5.28
2023-02-22T05:59:54.019Z,5.30
2023-02-22T06:02:10.374Z,5.47
2023-02-22T06:04:26.656Z,5.80
2023-02-22T06:06:42.914Z,5.57
2023-02-22T06:08:59.184Z,5.63
2023-02-22T06:11:15.752Z,5.93
2023-02-22T06:13:32.304Z,5.35
2023-02-22T06:15:48.590Z,4.95
2023-02-22T06:18:04.873Z,5.20
2023-02-22T06:20:21.173Z,5.18
2023-02-22T06:22:37.429Z,5.10
2023-02-22T06:24:55.098Z,6.00
2023-02-22T06:27:11.436Z,8.70
2023-02-22T06:29:27.751Z,7.60
2023-02-22T06:31:44.102Z,7.10
2023-02-22T06:34:00.398Z,6.10
2023-02-22T06:36:16.653Z,6.10
2023-02-22T06:38:32.975Z,6.80
2023-02-22T06:40:49.275Z,6.97
2023-02-22T06:43:05.540Z,7.20
2023-02-22T06:45:21.898Z,8.07
2023-02-22T06:47:38.289Z,7.10
2023-02-22T06:49:54.565Z,6.35
2023-02-22T06:52:10.987Z,7.20
2023-02-22T06:54:27.235Z,8.50
2023-02-22T06:56:43.517Z,7.03
2023-02-22T06:59:02.481Z,7.10
2023-02-22T07:01:19.216Z,7.25
2023-02-22T07:03:35.742Z,7.22
2023-02-22T07:05:52.126Z,7.40
2023-02-22T07:08:08.502Z,7.55
2023-02-22T07:10:24.793Z,6.68
2023-02-22T07:12:41.059Z,6.65
2023-02-22T07:14:57.415Z,6.05
2023-02-22T07:17:13.681Z,8.38
2023-02-22T07:19:29.958Z,8.93
2023-02-22T07:21:46.216Z,12.77
2023-02-22T07:24:04.567Z,15.82
2023-02-22T07:26:21.710Z,11.77
2023-02-22T07:28:37.993Z,9.95
2023-02-22T07:30:54.286Z,8.25
2023-02-22T07:33:10.656Z,9.00
2023-02-22T07:35:26.957Z,10.77
2023-02-22T07:37:43.224Z,9.07
2023-02-22T07:39:59.591Z,9.18
2023-02-22T07:42:15.916Z,8.07
2023-02-22T07:44:32.202Z,8.20
2023-02-22T07:46:48.462Z,8.13
2023-02-22T07:49:04.727Z,7.72
2023-02-22T07:51:21.016Z,7.68
2023-02-22T07:53:37.286Z,7.38
2023-02-22T07:55:53.542Z,7.88
2023-02-22T07:58:09.801Z,7.60
2023-02-22T08:00:26.149Z,7.80
2023-02-22T08:02:42.488Z,7.50
2023-02-22T08:04:58.789Z,7.72
2023-02-22T08:07:15.216Z,7.20
2023-02-22T08:09:31.538Z,7.55
2023-02-22T08:11:47.825Z,7.53
2023-02-22T08:14:04.098Z,7.85
2023-02-22T08:16:20.376Z,8.23
2023-02-22T08:18:36.977Z,7.43
2023-02-22T08:20:53.261Z,8.50
2023-02-22T08:23:09.538Z,9.18
2023-02-22T08:25:25.769Z,9.32
2023-02-22T08:27:42.028Z,12.20
2023-02-22T08:29:58.276Z,12.65
2023-02-22T08:32:14.580Z,12.52
2023-02-22T08:34:30.965Z,9.23
2023-02-22T08:36:47.428Z,8.68
2023-02-22T08:39:03.720Z,7.32
2023-02-22T08:41:20.043Z,7.20
2023-02-22T08:43:36.348Z,7.10
2023-02-22T08:45:52.899Z,5.93
2023-02-22T08:48:09.905Z,6.00
2023-02-22T08:50:26.182Z,6.50
2023-02-22T08:52:42.499Z,6.85
2023-02-22T08:54:58.934Z,6.85
2023-02-22T08:57:15.203Z,7.53
2023-02-22T08:59:31.481Z,5.85
2023-02-22T09:01:47.744Z,6.40
2023-02-22T09:04:04.031Z,6.43
2023-02-22T09:06:20.391Z,5.93
2023-02-22T09:08:36.701Z,6.20
2023-02-22T09:10:53.067Z,5.95
2023-02-22T09:13:09.403Z,6.15
2023-02-22T09:15:25.688Z,5.82
2023-02-22T09:17:41.975Z,6.20
2023-02-22T09:19:58.249Z,6.03
2023-02-22T09:22:14.558Z,5.60
2023-02-22T09:24:30.800Z,6.50
2023-02-22T09:26:47.057Z,6.00
2023-02-22T09:29:03.329Z,6.10
2023-02-22T09:31:20.194Z,6.60
2023-02-22T09:33:36.786Z,5.90
2023-02-22T09:35:53.048Z,6.18
2023-02-22T09:38:09.338Z,5.80
2023-02-22T09:40:25.634Z,6.20
2023-02-22T09:42:42.097Z,6.00
2023-02-22T09:44:58.417Z,6.13
2023-02-22T09:47:14.700Z,5.93
2023-02-22T09:49:31.066Z,5.80
2023-02-22T09:51:47.313Z,6.00
2023-02-22T09:54:03.565Z,5.97
2023-02-22T09:56:20.056Z,6.32
2023-02-22T09:58:36.552Z,5.93
2023-02-22T10:00:52.902Z,6.68
2023-02-22T10:03:09.153Z,7.40
2023-02-22T10:05:25.461Z,7.85
2023-02-22T10:07:41.777Z,7.82
2023-02-22T10:09:58.038Z,7.35
2023-02-22T10:12:14.343Z,8.23
2023-02-22T10:14:30.620Z,7.47
2023-02-22T10:16:46.980Z,8.73
2023-02-22T10:19:03.283Z,8.10
2023-02-22T10:21:19.573Z,8.30
2023-02-22T10:23:35.908Z,9.00
2023-02-22T10:25:52.260Z,9.32
2023-02-22T10:28:08.504Z,9.23
2023-02-22T10:30:25.776Z,9.63
2023-02-22T10:32:42.207Z,9.15
2023-02-22T10:34:58.496Z,9.40
2023-02-22T10:37:14.818Z,9.80
2023-02-22T10:39:31.179Z,9.85
2023-02-22T10:41:47.500Z,9.80
2023-02-22T10:44:03.833Z,9.40
2023-02-22T10:46:20.594Z,10.88
2023-02-22T10:48:36.961Z,9.45
2023-02-22T10:50:53.269Z,9.82
2023-02-22T10:53:09.578Z,10.13
2023-02-22T10:55:25.878Z,9.18
2023-02-22T10:57:42.165Z,9.75
2023-02-22T10:59:58.457Z,9.93
2023-02-22T11:02:14.947Z,9.90
2023-02-22T11:04:31.296Z,10.50
2023-02-22T11:06:47.553Z,10.95
2023-02-22T11:09:03.841Z,9.70
2023-02-22T11:11:20.147Z,10.68
2023-02-22T11:13:36.442Z,10.48
2023-02-22T11:15:52.702Z,9.77
2023-02-22T11:18:08.992Z,10.40
2023-02-22T11:20:25.326Z,9.65
2023-02-22T11:22:41.659Z,9.52
2023-02-22T11:24:57.932Z,9.77
2023-02-22T11:27:14.210Z,9.35
2023-02-22T11:29:30.481Z,8.68
2023-02-22T11:31:46.770Z,9.00
2023-02-22T11:34:03.270Z,9.90
2023-02-22T11:36:19.531Z,9.23
2023-02-22T11:38:35.846Z,10.20
2023-02-22T11:40:52.102Z,9.82
2023-02-22T11:43:08.392Z,9.25
2023-02-22T11:45:24.651Z,8.70
2023-02-22T11:47:40.991Z,8.88
2023-02-22T11:49:57.237Z,8.13
2023-02-22T11:52:13.515Z,8.70
2023-02-22T11:54:29.764Z,8.45
2023-02-22T11:56:46.105Z,8.95
2023-02-22T11:59:02.520Z,7.93
2023-02-22T12:01:18.780Z,8.63
2023-02-22T12:03:35.105Z,8.40
2023-02-22T12:05:51.457Z,8.80
2023-02-22T12:08:18.930Z,8.50
2023-02-22T12:10:36.192Z,8.05
2023-02-22T12:12:52.466Z,8.13
2023-02-22T12:15:08.776Z,8.40
2023-02-22T12:17:25.048Z,8.43
2023-02-22T12:19:41.353Z,8.52
2023-02-22T12:21:57.636Z,8.45
2023-02-22T12:24:13.974Z,8.50
2023-02-22T12:26:30.257Z,8.50
2023-02-22T12:28:46.729Z,8.15
2023-02-22T12:31:03.034Z,8.38
2023-02-22T12:33:19.408Z,9.32
2023-02-22T12:35:35.724Z,9.10
2023-02-22T12:37:52.011Z,8.32
2023-02-22T12:40:08.388Z,9.15
2023-02-22T12:42:24.831Z,8.45
2023-02-22T12:44:41.125Z,8.75
2023-02-22T12:46:57.400Z,8.35
2023-02-22T12:49:13.653Z,9.10
2023-02-22T12:51:29.988Z,9.30
2023-02-22T12:53:46.272Z,8.88
2023-02-22T12:56:02.535Z,9.20
2023-02-22T12:58:19.103Z,8.63
2023-02-22T13:00:35.440Z,9.05
2023-02-22T13:02:51.904Z,9.15
2023-02-22T13:05:08.238Z,8.52
2023-02-22T13:07:24.617Z,9.20
2023-02-22T13:09:40.921Z,9.32
2023-02-22T13:11:57.212Z,9.50
2023-02-22T13:14:13.494Z,9.93
2023-02-22T13:16:29.829Z,9.50
2023-02-22T13:18:46.181Z,9.52
2023-02-22T13:21:02.506Z,9.60
2023-02-22T13:23:18.784Z,9.23
2023-02-22T13:25:35.074Z,9.82
2023-02-22T13:27:51.405Z,9.68
2023-02-22T13:30:07.690Z,9.20
2023-02-22T13:32:24.228Z,9.88
2023-02-22T13:34:40.576Z,9.27
2023-02-22T13:36:56.862Z,9.32
2023-02-22T13:39:13.120Z,9.55
2023-02-22T13:41:29.370Z,9.65
2023-02-22T13:43:45.737Z,9.50
2023-02-22T13:46:02.135Z,12.88
2023-02-22T13:48:18.446Z,13.23
2023-02-22T13:50:34.750Z,14.35
2023-02-22T13:52:51.048Z,14.43
2023-02-22T13:55:07.329Z,14.40
2023-02-22T13:57:23.618Z,13.90
2023-02-22T13:59:39.870Z,14.25
2023-02-22T14:01:56.200Z,15.15
2023-02-22T14:04:12.601Z,15.45
2023-02-22T14:06:28.857Z,14.63
2023-02-22T14:08:45.111Z,15.52
2023-02-22T14:11:01.384Z,14.45
2023-02-22T14:13:17.719Z,15.55
2023-02-22T14:15:34.085Z,14.80
2023-02-22T14:17:50.383Z,14.82
2023-02-22T14:20:06.701Z,15.45
2023-02-22T14:22:23.004Z,15.05
2023-02-22T14:24:39.256Z,15.02
2023-02-22T14:26:55.538Z,15.35
2023-02-22T14:29:11.790Z,15.43
2023-02-22T14:31:37.272Z,15.77
2023-02-22T14:33:53.770Z,15.05
2023-02-22T14:36:10.036Z,16.65
2023-02-22T14:38:26.296Z,15.40
2023-02-22T14:40:42.591Z,15.02
2023-02-22T14:42:58.865Z,15.15
2023-02-22T14:45:15.136Z,16.00
2023-02-22T14:47:31.431Z,14.98
2023-02-22T14:49:47.758Z,14.98
2023-02-22T14:52:04.019Z,15.13
2023-02-22T14:54:20.268Z,15.57
2023-02-22T14:56:36.572Z,15.40
2023-02-22T14:58:52.875Z,17.02
2023-02-22T15:01:09.167Z,16.13
2023-02-22T15:03:25.445Z,15.45
2023-02-22T15:05:41.711Z,16.35
2023-02-22T15:07:58.034Z,16.73
2023-02-22T15:10:14.335Z,15.63
2023-02-22T15:12:30.652Z,15.57
2023-02-22T15:14:46.958Z,16.15
2023-02-22T15:17:03.250Z,16.17
2023-02-22T15:19:21.026Z,16.10
2023-02-22T15:21:37.312Z,16.58
2023-02-22T15:23:53.579Z,16.42
2023-02-22T15:26:09.978Z,17.48
2023-02-22T15:28:26.287Z,16.67
2023-02-22T15:30:42.613Z,16.55
2023-02-22T15:33:04.467Z,17.08
2023-02-22T15:35:21.153Z,16.20
2023-02-22T15:37:37.418Z,16.52
2023-02-22T15:39:53.674Z,17.58
2023-02-22T15:42:09.943Z,18.73
2023-02-22T15:44:26.258Z,17.55
2023-02-22T15:46:42.507Z,17.60
2023-02-22T15:48:58.811Z,17.23
2023-02-22T15:51:15.500Z,17.17
2023-02-22T15:53:32.058Z,18.35
2023-02-22T15:55:48.342Z,27.63
2023-02-22T15:58:04.622Z,28.60
2023-02-22T16:00:20.899Z,24.23
2023-02-22T16:02:37.251Z,20.35
2023-02-22T16:04:59.620Z,20.45
2023-02-22T16:07:16.242Z,20.50
2023-02-22T16:09:32.738Z,23.40
2023-02-22T16:11:49.061Z,19.67
2023-02-22T16:14:05.388Z,19.40
2023-02-22T16:16:21.707Z,23.08
2023-02-22T16:18:37.989Z,20.92
2023-02-22T16:20:54.305Z,21.65
2023-02-22T16:23:10.616Z,20.77
2023-02-22T16:25:26.911Z,24.60
2023-02-22T16:27:43.399Z,22.55
2023-02-22T16:29:59.795Z,20.88
2023-02-22T16:32:16.161Z,22.77
2023-02-22T16:34:32.477Z,21.25
2023-02-22T16:36:48.724Z,19.20
2023-02-22T16:39:05.062Z,21.05
2023-02-22T16:41:21.481Z,20.83
2023-02-22T16:43:37.851Z,20.88
2023-02-22T16:45:54.228Z,24.52
2023-02-22T16:48:10.539Z,32.70
2023-02-22T16:50:26.826Z,29.65
2023-02-22T16:52:43.075Z,44.05
2023-02-22T16:54:59.377Z,62.72
2023-02-22T16:57:15.699Z,44.47
2023-02-22T16:59:32.029Z,26.92
2023-02-22T17:01:48.335Z,30.30
2023-02-22T17:04:04.617Z,28.38
2023-02-22T17:06:20.932Z,27.63
2023-02-22T17:08:37.173Z,23.67
2023-02-22T17:10:53.453Z,23.48
2023-02-22T17:13:21.892Z,22.67
2023-02-22T17:15:40.058Z,23.95
2023-02-22T17:17:56.386Z,23.58
2023-02-22T17:20:12.678Z,26.13
2023-02-22T17:22:28.939Z,24.05
2023-02-22T17:24:45.388Z,21.13
2023-02-22T17:27:01.667Z,23.15
2023-02-22T17:29:17.949Z,20.60
2023-02-22T17:31:34.263Z,19.27
2023-02-22T17:33:50.605Z,18.77
2023-02-22T17:36:06.938Z,17.75
2023-02-22T17:38:23.230Z,18.00
2023-02-22T17:40:39.531Z,17.85
2023-02-22T17:42:55.890Z,16.08
2023-02-22T17:45:12.140Z,18.23
2023-02-22T17:47:28.436Z,19.95
2023-02-22T17:49:44.762Z,18.58
2023-02-22T17:52:01.203Z,18.48
2023-02-22T17:54:17.519Z,19.63
2023-02-22T17:56:33.775Z,20.40
2023-02-22T17:58:50.142Z,19.48
2023-02-22T18:01:06.946Z,18.60
2023-02-22T18:03:23.598Z,18.83
2023-02-22T18:05:40.226Z,17.70
2023-02-22T18:07:56.515Z,17.80
2023-02-22T18:10:13.290Z,18.40
2023-02-22T18:12:29.748Z,18.23
2023-02-22T18:14:46.515Z,17.27
2023-02-22T18:17:02.966Z,17.02
2023-02-22T18:19:22.090Z,17.15
2023-02-22T18:21:39.830Z,25.20
2023-02-22T18:23:56.281Z,23.77
2023-02-22T18:26:12.700Z,22.75
2023-02-22T18:28:29.228Z,20.42
2023-02-22T18:30:45.567Z,18.45
2023-02-22T18:33:02.267Z,16.50
2023-02-22T18:35:18.730Z,18.10
2023-02-22T18:37:35.487Z,19.27
2023-02-22T18:39:52.197Z,18.15
2023-02-22T18:42:08.868Z,18.15
2023-02-22T18:44:25.176Z,19.15
2023-02-22T18:46:41.632Z,20.52
2023-02-22T18:48:58.013Z,22.05
2023-02-22T18:51:14.620Z,24.45
2023-02-22T18:53:31.054Z,24.73
2023-02-22T18:55:47.767Z,27.30
2023-02-22T18:58:04.225Z,29.23
2023-02-22T19:00:20.571Z,27.98
2023-02-22T19:02:37.016Z,29.40
2023-02-22T19:04:53.732Z,26.52
2023-02-22T19:07:10.066Z,24.98
2023-02-22T19:09:26.480Z,25.90
2023-02-22T19:11:42.809Z,25.20
2023-02-22T19:13:59.528Z,21.23
2023-02-22T19:16:16.126Z,19.60
2023-02-22T19:18:32.905Z,19.95
2023-02-22T19:20:49.802Z,19.88
2023-02-22T19:23:06.514Z,19.77
2023-02-22T19:25:22.925Z,18.80
2023-02-22T19:27:39.347Z,17.23
2023-02-22T19:29:55.658Z,18.65
2023-02-22T19:32:12.346Z,18.23
2023-02-22T19:34:28.728Z,17.50
2023-02-22T19:36:45.170Z,15.98
2023-02-22T19:39:01.665Z,15.75
2023-02-22T19:41:18.539Z,16.13
2023-02-22T19:43:35.157Z,17.10
2023-02-22T19:45:51.918Z,15.95
2023-02-22T19:48:08.246Z,15.55
2023-02-22T19:50:24.884Z,16.02
2023-02-22T19:52:41.201Z,17.55
2023-02-22T19:54:57.609Z,16.65
2023-02-22T19:57:14.051Z,16.90
2023-02-22T19:59:30.427Z,15.82
2023-02-22T20:01:46.803Z,16.65
2023-02-22T20:04:03.608Z,15.93
2023-02-22T20:06:20.295Z,16.15
2023-02-22T20:08:36.723Z,15.95
2023-02-22T20:10:53.082Z,16.58
2023-02-22T20:13:09.510Z,15.85
2023-02-22T20:15:25.942Z,16.05
2023-02-22T20:17:42.602Z,16.92
2023-02-22T20:19:59.289Z,16.08
2023-02-22T20:22:15.662Z,17.77
2023-02-22T20:24:32.343Z,18.10
2023-02-22T20:26:49.023Z,19.52
2023-02-22T20:29:05.810Z,19.25
2023-02-22T20:31:22.330Z,21.02
2023-02-22T20:33:38.857Z,19.98
2023-02-22T20:35:55.605Z,18.83
2023-02-22T20:38:12.031Z,20.30
2023-02-22T20:40:28.468Z,20.88
2023-02-22T20:42:44.815Z,20.33
2023-02-22T20:45:01.245Z,20.15
2023-02-22T20:47:17.720Z,20.60
2023-02-22T20:49:34.019Z,20.95
2023-02-22T20:51:50.810Z,19.02
2023-02-22T20:54:07.561Z,21.13
2023-02-22T20:56:23.969Z,20.23
2023-02-22T20:58:40.259Z,21.20
2023-02-22T21:00:56.899Z,21.42
2023-02-22T21:03:13.371Z,19.55
2023-02-22T21:05:29.733Z,19.55
2023-02-22T21:07:46.661Z,19.85
2023-02-22T21:10:03.512Z,19.13
2023-02-22T21:12:20.336Z,19.95
2023-02-22T21:14:36.721Z,21.02
2023-02-22T21:16:53.140Z,20.92
2023-02-22T21:19:09.793Z,19.38
2023-02-22T21:21:26.744Z,20.02
2023-02-22T21:23:43.068Z,20.58
2023-02-22T21:25:59.801Z,20.70
2023-02-22T21:28:16.190Z,20.38
2023-02-22T21:30:32.840Z,21.25
2023-02-22T21:32:49.688Z,21.25
2023-02-22T21:35:06.287Z,21.20
2023-02-22T21:37:22.644Z,20.60
2023-02-22T21:39:38.995Z,20.90
2023-02-22T21:41:55.788Z,21.38
2023-02-22T21:44:12.504Z,21.65
2023-02-22T21:46:29.260Z,21.42
2023-02-22T21:48:45.773Z,21.85
2023-02-22T21:51:02.265Z,21.40
2023-02-22T21:53:18.985Z,21.58
2023-02-22T21:55:35.283Z,21.48
2023-02-22T21:57:52.214Z,22.35
2023-02-22T22:00:08.998Z,21.75
2023-02-22T22:02:25.551Z,21.20
2023-02-22T22:04:42.380Z,22.05
2023-02-22T22:06:59.005Z,21.42
2023-02-22T22:09:15.777Z,23.10
2023-02-22T22:11:33.451Z,22.67
2023-02-22T22:13:50.606Z,22.80
2023-02-22T22:16:07.755Z,22.30
2023-02-22T22:18:27.684Z,22.15
2023-02-22T22:20:45.067Z,23.05
2023-02-22T22:23:02.508Z,20.67
2023-02-22T22:25:19.059Z,20.70
2023-02-22T22:27:35.830Z,22.73
2023-02-22T22:29:52.210Z,22.85
2023-02-22T22:32:09.646Z,24.67
2023-02-22T22:34:26.249Z,23.65
2023-02-22T22:36:42.998Z,23.88
2023-02-22T22:39:00.048Z,21.85
2023-02-22T22:41:18.069Z,22.92
2023-02-22T22:43:34.591Z,21.25
2023-02-22T22:45:51.296Z,21.95
2023-02-22T22:48:07.634Z,24.35
2023-02-22T22:50:24.544Z,23.27
2023-02-22T22:52:41.123Z,24.50
2023-02-22T22:54:57.549Z,24.23
2023-02-22T22:57:13.877Z,26.88
2023-02-22T22:59:30.642Z,25.95
2023-02-22T23:01:47.457Z,25.50
2023-02-22T23:04:04.286Z,25.40
2023-02-22T23:06:20.664Z,24.88
2023-02-22T23:08:37.062Z,22.00
2023-02-22T23:10:53.576Z,23.38
2023-02-22T23:13:09.941Z,26.85
2023-02-22T23:15:26.303Z,29.25
2023-02-22T23:17:42.982Z,32.17
2023-02-22T23:19:59.303Z,33.15
2023-02-22T23:22:18.167Z,31.00
2023-02-22T23:24:34.597Z,31.17
2023-02-22T23:26:51.328Z,29.30
2023-02-22T23:29:07.926Z,27.83
2023-02-22T23:31:24.690Z,28.90
2023-02-22T23:33:41.512Z,26.40
2023-02-22T23:35:58.068Z,27.48
2023-02-22T23:38:14.798Z,27.48
2023-02-22T23:40:31.161Z,27.23
2023-02-22T23:42:47.650Z,25.67
2023-02-22T23:45:04.426Z,27.02
2023-02-22T23:47:21.053Z,25.98
2023-02-22T23:49:37.599Z,26.33
2023-02-22T23:51:54.145Z,26.17
2023-02-22T23:54:10.567Z,28.27
2023-02-22T23:56:27.123Z,27.13
2023-02-22T23:58:43.821Z,26.13
